Latest Weather Observations for Khancoban

IDN60801

Issued at 12:32 pm EDT Sunday 14 February 2016 (issued every 30 minutes, with the page automatically refreshed every 10 minutes)

About weather observations | Map of weather stations | Latest weather observations for NSW | Other Formats
Station Details ID: 072162 Name: KHANCOBAN AWS Lat: -36.23 Lon: 148.14 Height: 339.3 m
Data from the previous 72 hours. | See also: Recent months at Khancoban
Date/Time
EDT
Temp
°C
App
Temp
°C
Dew
Point
Rel
Hum
%
Delta-T
°C
Wind Press
QNH
hPa
Press
MSL
hPa
Rain
since 9 am
mm
Dir
 
Spd
km/h
Gust
km/h
Spd
kts
Gust
kts
14/12:30pm 29.6 25.5 8.6 27 11.8 NW 20 35 11 19 1009.3 1007.7 0.0
14/12:00pm 29.9 26.3 10.5 30 11.2 NW 20 32 11 17 1009.6 1008.0 0.0
14/11:30am 29.0 25.9 11.6 34 10.2 NW 19 30 10 16 1009.9 1008.3 0.0
14/11:00am 28.4 26.4 13.9 41 8.8 NW 17 28 9 15 1010.1 1008.5 0.0
14/10:30am 26.5 27.7 14.9 49 7.1 N 2 7 1 4 1010.1 1008.5 0.0
14/10:00am 25.2 26.7 15.8 56 5.8 W 2 7 1 4 1010.0 1008.4 0.0
14/09:30am 22.0 23.5 14.6 63 4.4 CALM 0 2 0 1 1010.1 1008.5 0.0
14/09:00am 20.9 22.1 15.0 69 3.5 WNW 2 6 1 3 1010.1 1008.5 0.0
14/08:30am 20.7 21.1 14.8 69 3.5 WNW 6 7 3 4 1009.7 1008.1 0.0
14/08:00am 19.5 19.6 14.5 73 3.0 NNE 7 9 4 5 1009.8 1008.2 0.0
14/07:30am 17.7 18.1 13.6 77 2.4 S 4 6 2 3 1009.3 1007.7 0.0
14/07:00am 17.8 18.3 13.9 78 2.3 NE 4 7 2 4 1009.1 1007.5 0.0
14/06:30am 17.7 18.6 14.0 79 2.1 NW 2 7 1 4 1008.7 1007.2 0.0
14/06:00am 18.7 20.0 14.2 75 2.6 CALM 0 4 0 2 1008.2 1006.7 0.0
14/05:30am 18.2 18.3 14.5 79 2.2 SSE 7 9 4 5 1007.9 1006.4 0.0
14/05:00am 18.1 18.1 14.2 78 2.3 NNW 7 11 4 6 1008.0 1006.5 0.0
14/04:30am 18.2 18.1 13.9 76 2.5 SSE 7 9 4 5 1007.8 1006.3 0.0
14/04:00am 18.4 19.6 13.9 75 2.6 CALM 0 0 0 0 1008.2 1006.7 0.0
14/03:30am 18.7 18.7 14.2 75 2.6 NNE 7 11 4 6 1007.8 1006.3 0.0
14/03:00am 18.9 18.9 14.2 74 2.8 S 7 9 4 5 1007.8 1006.3 0.0
14/02:30am 19.2 20.6 14.5 74 2.8 CALM 0 0 0 0 1008.2 1006.7 0.0
14/02:00am 19.8 21.2 14.4 71 3.2 CALM 0 0 0 0 1008.3 1006.8 0.0
14/01:30am 19.6 19.9 14.4 72 3.1 NNW 6 9 3 5 1008.4 1006.9 0.0
14/01:00am 19.7 21.0 14.1 70 3.3 CALM 0 0 0 0 1008.5 1007.0 0.0
14/12:30am 20.8 22.1 14.0 65 4.0 CALM 0 0 0 0 1008.6 1007.1 0.0
14/12:00am 20.3 20.2 14.0 67 3.7 SSW 7 11 4 6 1008.6 1007.1 0.0
 
Date/Time
EDT
Temp
°C
App
Temp
°C
Dew
Point
Rel
Hum
%
Delta-T
°C
Wind Press
QNH
hPa
Press
MSL
hPa
Rain
since 9 am
mm
Dir
 
Spd
km/h
Gust
km/h
Spd
kts
Gust
kts
13/11:30pm 20.6 20.7 13.8 65 4.0 ESE 6 9 3 5 1008.6 1007.1 0.0
13/11:00pm 21.3 21.5 14.2 64 4.2 NNE 6 9 3 5 1008.4 1006.9 0.0
13/10:30pm 20.5 21.5 13.2 63 4.2 CALM 0 0 0 0 1009.0 1007.4 0.0
13/10:00pm 21.8 23.0 13.9 61 4.7 CALM 0 0 0 0 1008.8 1007.3 0.0
13/09:30pm 23.6 25.0 14.3 56 5.6 CALM 0 4 0 2 1008.7 1007.2 0.0
13/09:00pm 23.8 23.8 13.6 52 6.0 ESE 6 9 3 5 1008.5 1007.0 0.0
13/08:30pm 24.3 25.2 12.9 49 6.7 CALM 0 0 0 0 1008.3 1006.8 0.0
13/08:00pm 25.5 25.3 13.0 46 7.4 SSW 6 9 3 5 1008.2 1006.7 0.0
13/07:30pm 28.0 28.7 13.5 41 8.7 W 2 7 1 4 1008.0 1006.5 0.0
13/07:00pm 31.3 29.7 10.1 27 12.3 N 9 13 5 7 1007.8 1006.3 0.0
13/06:30pm 33.3 31.8 10.6 25 13.3 NW 9 15 5 8 1008.0 1006.5 0.0
13/06:00pm 33.3 31.2 11.2 26 13.1 NW 13 22 7 12 1008.2 1006.7 0.0
13/05:30pm 33.6 32.2 10.9 25 13.4 NW 9 15 5 8 1008.4 1006.9 0.0
13/05:00pm 32.5 30.8 11.1 27 12.6 WNW 11 17 6 9 1008.7 1007.2 0.0
13/04:30pm 33.5 30.7 11.4 26 13.2 NW 17 22 9 12 1009.1 1007.5 0.0
13/04:00pm 32.9 31.6 11.4 27 12.8 NW 9 17 5 9 1009.5 1007.9 0.0
13/03:30pm 31.9 30.3 11.7 29 12.0 NW 11 19 6 10 1010.0 1008.4 0.0
13/03:00pm 32.4 30.4 11.6 28 12.4 NNW 13 24 7 13 1010.5 1009.0 0.0
13/02:30pm 31.9 30.7 12.7 31 11.6 WSW 11 20 6 11 1011.0 1009.5 0.0
13/02:00pm 31.7 30.2 13.0 32 11.3 NW 13 22 7 12 1011.5 1010.0 0.0
13/01:30pm 30.8 30.0 14.0 36 10.3 W 11 19 6 10 1011.9 1010.4 0.0
13/01:00pm 30.4 30.4 15.3 40 9.4 WSW 9 15 5 8 1012.3 1010.7 0.0
13/12:30pm 29.3 29.6 15.1 42 8.8 WSW 7 13 4 7 1012.6 1011.0 0.0
13/12:00pm 28.3 28.3 15.2 44 8.1 SW 9 15 5 8 1013.0 1011.5 0.0
13/11:30am 27.3 27.5 15.7 49 7.2 SSW 9 13 5 7 1013.1 1011.6 0.0
13/11:00am 25.6 26.1 15.0 52 6.5 W 6 9 3 5 1013.7 1012.2 0.0
13/10:30am 23.9 24.0 14.0 54 5.9 NW 6 9 3 5 1014.1 1012.6 0.0
13/10:00am 22.5 23.3 13.8 58 5.1 NNW 2 7 1 4 1014.3 1012.8 0.0
13/09:30am 21.1 22.5 14.3 65 4.0 CALM 0 7 0 4 1014.4 1012.9 0.0
13/09:00am 19.1 20.3 13.7 71 3.1 CALM 0 6 0 3 1014.4 1012.9 0.2
13/08:30am 17.0 18.0 13.1 78 2.2 CALM 0 0 0 0 1014.5 1013.0 0.2
13/08:00am 15.8 16.6 12.7 82 1.7 CALM 0 0 0 0 1014.5 1013.0 0.2
13/07:30am 13.5 13.9 11.2 86 1.2 CALM 0 6 0 3 1014.5 1013.0 0.2
13/07:00am 13.6 12.9 11.3 86 1.2 NE 6 7 3 4 1014.2 1012.7 0.2
13/06:30am 13.4 13.8 11.1 86 1.2 CALM 0 0 0 0 1013.8 1012.3 0.2
13/06:00am 13.8 14.2 11.1 84 1.5 CALM 0 0 0 0 1013.5 1012.0 0.2
13/05:30am 13.5 13.8 10.9 84 1.4 CALM 0 0 0 0 1013.3 1011.8 0.2
13/05:00am 14.0 14.4 11.2 83 1.5 CALM 0 0 0 0 1013.3 1011.8 0.2
13/04:30am 14.9 15.1 11.7 81 1.8 E 2 7 1 4 1013.1 1011.6 0.2
13/04:00am 14.0 14.4 11.2 83 1.5 CALM 0 0 0 0 1013.2 1011.7 0.2
13/03:30am 14.7 15.1 11.3 80 1.8 CALM 0 0 0 0 1013.3 1011.8 0.2
13/03:00am 15.5 16.0 11.7 78 2.1 CALM 0 0 0 0 1013.5 1012.0 0.2
13/02:30am 15.9 16.0 11.5 75 2.4 E 2 6 1 3 1013.5 1012.0 0.2
13/02:00am 15.4 15.1 11.6 78 2.1 NE 4 7 2 4 1013.3 1011.8 0.2
13/01:30am 16.2 16.7 11.6 74 2.5 CALM 0 0 0 0 1013.3 1011.8 0.2
13/01:00am 16.7 17.4 12.3 75 2.5 CALM 0 0 0 0 1013.4 1011.9 0.2
13/12:30am 17.2 17.9 12.1 72 2.8 CALM 0 0 0 0 1013.5 1012.0 0.2
13/12:00am 17.2 17.9 12.3 73 2.7 CALM 0 0 0 0 1013.5 1012.0 0.2
 
Date/Time
EDT
Temp
°C
App
Temp
°C
Dew
Point
Rel
Hum
%
Delta-T
°C
Wind Press
QNH
hPa
Press
MSL
hPa
Rain
since 9 am
mm
Dir
 
Spd
km/h
Gust
km/h
Spd
kts
Gust
kts
12/11:30pm 17.0 17.6 11.9 72 2.8 CALM 0 0 0 0 1013.6 1012.1 0.2
12/11:00pm 17.7 17.5 11.9 69 3.2 N 4 7 2 4 1013.7 1012.2 0.2
12/10:30pm 18.5 19.2 12.3 67 3.5 CALM 0 0 0 0 1013.8 1012.3 0.2
12/10:00pm 20.0 20.8 12.7 63 4.2 CALM 0 0 0 0 1013.8 1012.3 0.2
12/09:30pm 20.6 21.0 12.6 60 4.6 NW 2 6 1 3 1013.7 1012.2 0.2
12/09:00pm 21.0 21.8 12.4 58 4.9 CALM 0 0 0 0 1013.4 1011.9 0.2
12/08:30pm 22.5 23.1 11.9 51 6.1 CALM 0 0 0 0 1013.1 1011.6 0.2
12/08:00pm 25.0 24.4 11.6 43 7.7 SSW 6 9 3 5 1012.8 1011.2 0.2
12/07:30pm 28.2 27.6 10.4 33 10.2 WNW 4 7 2 4 1012.6 1011.0 0.2
12/07:00pm 31.3 30.5 8.3 24 12.9 WNW 2 7 1 4 1012.6 1011.0 0.2
12/06:30pm 31.3 29.6 8.3 24 12.9 SSW 7 11 4 6 1012.5 1010.9 0.2
12/06:00pm 31.3 29.6 8.3 24 12.9 S 7 11 4 6 1012.5 1010.9 0.2
12/05:30pm 31.7 30.1 8.7 24 13.0 SE 7 9 4 5 1012.5 1010.9 0.2
12/05:00pm 31.7 29.4 7.4 22 13.5 W 9 15 5 8 1012.6 1011.0 0.2
12/04:30pm 32.0 29.5 8.3 23 13.4 WSW 11 19 6 10 1012.8 1011.2 0.2
12/04:00pm 31.9 28.9 7.5 22 13.6 WNW 13 22 7 12 1013.0 1011.5 0.2
12/03:30pm 31.8 29.1 7.5 22 13.5 NNW 11 20 6 11 1013.4 1011.9 0.2
12/03:00pm 32.3 30.1 7.9 22 13.7 NNE 9 20 5 11 1013.7 1012.2 0.2
12/02:30pm 30.8 29.3 8.5 25 12.5 SSE 6 11 3 6 1014.1 1012.6 0.2
12/02:00pm 30.4 29.3 11.9 32 11.0 NNW 9 13 5 7 1014.5 1013.0 0.2
12/01:30pm 29.3 28.6 13.1 37 9.7 SSW 9 15 5 8 1014.7 1013.2 0.2
12/01:00pm 28.8 28.6 13.5 39 9.2 W 7 13 4 7 1015.0 1013.5 0.2
12/12:30pm 27.7 27.7 14.3 43 8.1 NW 7 11 4 6 1015.5 1014.0 0.2
12/12:00pm 27.8 28.5 16.1 49 7.3 NW 7 11 4 6 1015.9 1014.4 0.2
12/11:30am 26.1 27.0 16.1 54 6.2 ESE 6 9 3 5 1016.1 1014.6 0.2
12/11:00am 24.6 26.1 15.8 58 5.4 SSW 2 6 1 3 1016.3 1014.8 0.2
12/10:30am 23.2 24.4 15.8 63 4.5 NW 4 9 2 5 1016.5 1015.0 0.2
12/10:00am 21.9 23.0 15.5 67 3.9 NW 4 7 2 4 1016.8 1015.3 0.2
12/09:30am 21.2 22.9 15.1 68 3.7 CALM 0 0 0 0 1017.2 1015.7 0.0
12/09:00am 19.7 21.4 15.1 75 2.7 CALM 0 6 0 3 1017.3 1015.8 3.2
12/08:30am 18.4 20.1 15.3 82 1.8 CALM 0 0 0 0 1017.2 1015.7 3.2
12/08:00am 16.1 17.7 15.0 93 0.6 CALM 0 0 0 0 1016.9 1015.4 3.2
12/07:30am 14.7 14.8 13.9 95 0.5 NNE 6 9 3 5 1016.6 1015.1 3.2
12/07:00am 14.0 14.9 12.9 93 0.6 CALM 0 0 0 0 1016.5 1015.0 3.2
12/06:30am 14.4 15.4 13.1 92 0.7 CALM 0 0 0 0 1016.4 1014.9 3.2
12/06:00am 14.6 15.6 13.1 91 0.8 CALM 0 0 0 0 1016.1 1014.6 3.2
12/05:30am 14.4 14.6 13.0 91 0.8 SSE 4 7 2 4 1015.8 1014.3 3.2
12/05:00am 14.9 15.6 13.4 91 0.8 NE 2 6 1 3 1015.4 1013.8 3.2
12/04:30am 15.1 16.2 13.5 90 0.9 CALM 0 0 0 0 1015.3 1013.7 3.2
12/04:00am 15.4 16.2 13.8 90 0.9 NNE 2 6 1 3 1015.3 1013.7 3.2
12/03:30am 15.7 16.1 13.7 88 1.1 SSW 4 7 2 4 1015.4 1013.8 3.2
12/03:00am 15.7 16.8 13.5 87 1.3 CALM 0 0 0 0 1015.6 1014.1 3.2
12/02:30am 16.4 17.3 14.1 86 1.3 NE 2 7 1 4 1015.6 1014.1 3.2
12/02:00am 16.6 17.1 14.1 85 1.4 SE 4 7 2 4 1015.5 1014.0 3.2
12/01:30am 16.9 16.5 14.2 84 1.6 S 9 9 5 5 1015.4 1013.8 3.2
12/01:00am 17.9 17.6 14.4 80 2.0 ENE 9 13 5 7 1015.4 1013.8 3.2
12/12:30am 18.8 18.1 15.3 80 2.1 NNE 13 19 7 10 1015.0 1013.5 3.2
12/12:00am 17.7 17.5 14.8 83 1.7 NNE 9 11 5 6 1015.0 1013.5 3.2
 
Date/Time
EDT
Temp
°C
App
Temp
°C
Dew
Point
Rel
Hum
%
Delta-T
°C
Wind Press
QNH
hPa
Press
MSL
hPa
Rain
since 9 am
mm
Dir
 
Spd
km/h
Gust
km/h
Spd
kts
Gust
kts
11/11:30pm 18.2 18.7 15.1 82 1.8 WSW 6 11 3 6 1014.9 1013.4 3.2
11/11:00pm 18.7 19.0 14.6 77 2.4 NE 6 7 3 4 1014.8 1013.3 3.2
11/10:30pm 19.8 19.5 14.4 71 3.2 SSE 9 17 5 9 1014.9 1013.4 3.2
11/10:00pm 19.9 19.7 14.7 72 3.1 SSE 9 13 5 7 1014.9 1013.4 3.2
11/09:30pm 22.1 19.7 14.5 62 4.5 ESE 20 39 11 21 1014.7 1013.2 3.2
11/09:00pm 20.5 18.0 13.5 64 4.1 SSE 19 28 10 15 1014.5 1013.0 2.8
11/08:48pm 23.3 18.8 12.6 51 6.2 SW 28 46 15 25 1014.3 1012.8 1.4
11/08:39pm 26.0 21.2 11.7 41 8.3 SW 28 41 15 22 1013.7 1012.2 0.0
11/08:30pm 26.9 25.0 11.8 39 8.8 S 13 22 7 12 1012.8 1011.2 0.0
11/08:00pm 27.8 23.8 11.8 37 9.4 NE 24 35 13 19 1011.8 1010.3 0.0
11/07:30pm 29.6 28.0 10.2 30 11.1 ENE 9 20 5 11 1011.4 1009.9 0.0
11/07:00pm 31.8 29.9 7.5 22 13.5 W 7 11 4 6 1011.0 1009.5 0.0
11/06:30pm 32.3 30.2 5.7 19 14.4 W 6 9 3 5 1011.0 1009.5 0.0
11/06:00pm 32.4 28.9 3.4 16 15.1 W 11 15 6 8 1010.8 1009.3 0.0
11/05:30pm 32.0 29.3 3.9 17 14.7 NW 7 13 4 7 1010.8 1009.3 0.0
11/05:00pm 32.9 30.9 7.0 20 14.4 WSW 7 13 4 7 1010.9 1009.4 0.0
11/04:30pm 32.0 30.1 7.6 22 13.6 SW 7 13 4 7 1011.1 1009.6 0.0
11/04:00pm 31.7 29.2 8.0 23 13.3 W 11 15 6 8 1011.4 1009.9 0.0
11/03:30pm 31.8 30.1 9.9 26 12.6 WNW 9 15 5 8 1011.7 1010.2 0.0
11/03:00pm 31.6 30.4 10.3 27 12.4 WNW 7 17 4 9 1012.2 1010.6 0.0
11/02:30pm 31.0 29.6 10.9 29 11.7 NW 9 15 5 8 1012.7 1011.1 0.0
11/02:00pm 30.7 30.0 12.1 32 11.1 N 7 13 4 7 1013.1 1011.6 0.0
11/01:30pm 30.2 29.3 12.6 34 10.5 WNW 9 15 5 8 1013.5 1012.0 0.0
11/01:00pm 29.6 29.1 12.1 34 10.4 W 6 13 3 7 1013.9 1012.4 0.0

Other Formats:

Comma delimited format used in spreadsheet applications
http://www.bom.gov.au/fwo/IDN60801/IDN60801.94919.axf

JavaScript Object Notation format (JSON) in row-major order
http://www.bom.gov.au/fwo/IDN60801/IDN60801.94919.json